createdAt,value
2022-08-12T00:04:33.712Z,101255.11
2022-08-12T00:09:55.535Z,101253.68
2022-08-12T00:15:16.792Z,101260.30
2022-08-12T00:20:38.518Z,101260.68
2022-08-12T00:26:23.316Z,101256.83
2022-08-12T00:31:44.122Z,101256.56
2022-08-12T00:37:13.559Z,101259.04
2022-08-12T00:42:20.137Z,101257.14
2022-08-12T00:47:24.736Z,101255.52
2022-08-12T00:52:28.592Z,101255.15
2022-08-12T00:57:37.584Z,101248.52
2022-08-12T01:02:47.882Z,101247.14
2022-08-12T01:08:10.023Z,101250.45
2022-08-12T01:13:19.288Z,101254.38
2022-08-12T01:18:27.425Z,101249.73
2022-08-12T01:23:42.860Z,101250.15
2022-08-12T01:28:48.699Z,101246.79
2022-08-12T01:34:03.622Z,101248.98
2022-08-12T01:39:06.661Z,101250.18
2022-08-12T01:44:10.531Z,101254.59
2022-08-12T01:49:37.642Z,101255.67
2022-08-12T01:54:44.682Z,101249.42
2022-08-12T02:00:00.366Z,101249.08
2022-08-12T02:05:59.957Z,101248.14
2022-08-12T02:11:16.436Z,101246.45
2022-08-12T02:16:30.376Z,101246.95
2022-08-12T02:22:02.044Z,101241.73
2022-08-12T02:27:10.703Z,101244.61
2022-08-12T02:32:14.570Z,101244.17
2022-08-12T02:37:18.564Z,101247.80
2022-08-12T02:42:23.863Z,101250.94
2022-08-12T02:47:58.720Z,101241.98
2022-08-12T02:52:57.394Z,101244.48
2022-08-12T02:58:07.122Z,101242.59
2022-08-12T03:03:15.658Z,101239.98
2022-08-12T03:08:32.202Z,101241.73
2022-08-12T03:13:41.362Z,101238.32
2022-08-12T03:18:46.217Z,101235.80
2022-08-12T03:23:49.137Z,101231.45
2022-08-12T03:28:57.958Z,101229.16
2022-08-12T03:34:03.600Z,101228.83
2022-08-12T03:39:18.567Z,101231.77
2022-08-12T03:45:27.678Z,101230.60
2022-08-12T03:50:49.691Z,101231.92
2022-08-12T03:56:12.151Z,101233.30
2022-08-12T04:01:15.138Z,101239.13
2022-08-12T04:06:34.511Z,101238.48
2022-08-12T04:11:59.426Z,101235.67
2022-08-12T04:17:03.287Z,101238.65
2022-08-12T04:22:05.977Z,101249.92
2022-08-12T04:27:11.073Z,101258.59
2022-08-12T04:32:14.056Z,101258.91
2022-08-12T04:37:17.086Z,101257.94
2022-08-12T04:42:20.711Z,101258.70
2022-08-12T04:47:24.369Z,101260.88
2022-08-12T04:52:29.617Z,101259.10
2022-08-12T04:57:34.647Z,101252.42
2022-08-12T05:02:38.201Z,101245.28
2022-08-12T05:07:45.793Z,101246.98
2022-08-12T05:13:00.140Z,101242.15
2022-08-12T05:18:19.146Z,101238.36
2022-08-12T05:23:22.843Z,101230.45
2022-08-12T05:28:27.536Z,101228.30
2022-08-12T05:33:40.395Z,101228.07
2022-08-12T05:38:56.789Z,101224.56
2022-08-12T05:44:05.486Z,101221.91
2022-08-12T05:49:09.300Z,101217.31
2022-08-12T05:54:12.247Z,101227.07
2022-08-12T05:59:15.907Z,101225.75
2022-08-12T06:04:18.593Z,101229.50
2022-08-12T06:09:22.965Z,101223.98
2022-08-12T06:14:25.693Z,101225.73
2022-08-12T06:20:26.731Z,101225.38
2022-08-12T06:24:54.594Z,101218.77
2022-08-12T06:30:09.913Z,101217.98
2022-08-12T06:35:26.488Z,101220.91
2022-08-12T06:40:58.026Z,101222.20
2022-08-12T06:46:05.310Z,101223.50
2022-08-12T06:51:08.729Z,101217.71
2022-08-12T06:56:12.679Z,101218.14
2022-08-12T07:01:17.460Z,101220.89
2022-08-12T07:06:20.349Z,101225.98
2022-08-12T07:11:23.446Z,101227.19
2022-08-12T07:16:27.054Z,101233.83
2022-08-12T07:21:59.797Z,101230.34
2022-08-12T07:26:55.074Z,101221.45
2022-08-12T07:31:59.519Z,101221.64
2022-08-12T07:37:02.204Z,101217.20
2022-08-12T07:42:06.762Z,101210.13
2022-08-12T07:47:09.452Z,101210.64
2022-08-12T07:52:15.736Z,101206.50
2022-08-12T07:57:18.451Z,101205.33
2022-08-12T08:02:21.146Z,101206.41
2022-08-12T08:07:30.950Z,101201.73
2022-08-12T08:12:52.266Z,101201.14
2022-08-12T08:18:07.012Z,101200.86
2022-08-12T08:23:18.592Z,101200.02
2022-08-12T08:28:21.472Z,101205.48
2022-08-12T08:34:04.378Z,101202.72
2022-08-12T08:38:57.770Z,101204.08
2022-08-12T08:44:01.553Z,101195.23
2022-08-12T08:49:05.392Z,101197.30
2022-08-12T08:54:12.184Z,101191.34
2022-08-12T08:59:14.938Z,101184.20
2022-08-12T09:05:12.607Z,101189.98
2022-08-12T09:15:19.182Z,101182.11
2022-08-12T09:20:29.341Z,101188.59
2022-08-12T09:25:33.970Z,101193.16
2022-08-12T09:30:41.913Z,101191.31
2022-08-12T09:35:46.115Z,101192.35
2022-08-12T09:41:02.067Z,101189.63
2022-08-12T09:46:22.469Z,101190.26
2022-08-12T09:51:37.418Z,101182.86
2022-08-12T09:57:03.097Z,101185.39
2022-08-12T10:02:42.208Z,101178.36
2022-08-12T10:07:40.343Z,101169.16
2022-08-12T10:13:07.831Z,101163.75
2022-08-12T10:18:15.634Z,101166.90
2022-08-12T10:23:18.353Z,101160.13
2022-08-12T10:29:02.087Z,101161.02
2022-08-12T10:34:23.765Z,101151.85
2022-08-12T10:40:02.055Z,101140.35
2022-08-12T10:45:05.627Z,101142.27
2022-08-12T10:50:25.016Z,101136.66
2022-08-12T10:55:31.259Z,101133.80
2022-08-12T11:00:45.144Z,101122.34
2022-08-12T11:07:05.440Z,101120.54
2022-08-12T11:12:07.775Z,101112.50
2022-08-12T11:17:34.563Z,101110.81
2022-08-12T11:22:13.193Z,101099.44
2022-08-12T11:27:17.056Z,101089.81
2022-08-12T11:32:19.995Z,101096.17
2022-08-12T11:37:26.559Z,101089.29
2022-08-12T11:42:32.434Z,101080.58
2022-08-12T11:47:35.429Z,101085.63
2022-08-12T11:52:56.616Z,101088.30
2022-08-12T11:58:59.289Z,101089.35
2022-08-12T12:03:43.943Z,101095.51
2022-08-12T12:08:52.774Z,101094.13
2022-08-12T12:14:07.902Z,101088.27
2022-08-12T12:19:13.946Z,101079.98
2022-08-12T12:24:21.600Z,101073.55
2022-08-12T12:30:18.784Z,101063.94
2022-08-12T12:35:13.499Z,101049.91
2022-08-12T12:40:11.566Z,101041.06
2022-08-12T12:45:19.586Z,101040.81
2022-08-12T12:50:34.919Z,101040.89
2022-08-12T12:55:39.559Z,101038.61
2022-08-12T13:00:50.979Z,101039.98
2022-08-12T13:05:56.401Z,101036.46
2022-08-12T13:11:03.458Z,101037.15
2022-08-12T13:16:14.392Z,101036.11
2022-08-12T13:21:33.420Z,101024.48
2022-08-12T13:26:40.787Z,101017.84
2022-08-12T13:31:46.635Z,101010.47
2022-08-12T13:37:09.693Z,101008.30
2022-08-12T13:42:14.514Z,101005.11
2022-08-12T13:47:19.599Z,100997.34
2022-08-12T13:52:24.255Z,100993.77
2022-08-12T13:57:44.466Z,100988.20
2022-08-12T14:02:53.075Z,100987.47
2022-08-12T14:08:01.791Z,100990.29
2022-08-12T14:14:03.082Z,100991.57
2022-08-12T14:18:50.134Z,100981.09
2022-08-12T14:24:05.441Z,100980.93
2022-08-12T14:29:09.623Z,100978.43
2022-08-12T14:34:12.521Z,100983.05
2022-08-12T14:39:17.609Z,100981.55
2022-08-12T14:44:59.656Z,100981.76
2022-08-12T14:50:41.731Z,100982.42
2022-08-12T15:00:52.708Z,100976.58
2022-08-12T15:06:43.901Z,100979.92
2022-08-12T15:11:54.962Z,100971.27
2022-08-12T15:16:51.315Z,100967.80
2022-08-12T15:22:37.557Z,100962.42
2022-08-12T15:27:22.475Z,100960.14
2022-08-12T15:32:34.821Z,100957.73
2022-08-12T15:38:09.203Z,100952.77
2022-08-12T15:43:03.996Z,100950.89
2022-08-12T15:48:20.285Z,100954.92
2022-08-12T15:53:43.286Z,100954.28
2022-08-12T15:58:47.816Z,100955.05
2022-08-12T16:03:59.950Z,100951.47
2022-08-12T16:09:03.527Z,100951.54
2022-08-12T16:14:10.431Z,100952.29
2022-08-12T16:20:01.776Z,100955.71
2022-08-12T16:24:42.331Z,100954.20
2022-08-12T16:29:52.981Z,100956.02
2022-08-12T16:34:57.674Z,100948.39
2022-08-12T16:40:04.935Z,100944.96
2022-08-12T16:45:13.662Z,100940.27
2022-08-12T16:50:16.713Z,100935.54
2022-08-12T16:55:19.551Z,100939.04
2022-08-12T17:00:25.038Z,100935.04
2022-08-12T17:05:31.426Z,100934.17
2022-08-12T17:10:37.202Z,100936.15
2022-08-12T17:16:00.450Z,100935.80
2022-08-12T17:21:07.487Z,100934.84
2022-08-12T17:26:11.201Z,100930.54
2022-08-12T17:31:16.925Z,100929.73
2022-08-12T17:36:39.575Z,100922.75
2022-08-12T17:41:57.137Z,100928.39
2022-08-12T17:47:00.679Z,100933.06
2022-08-12T17:52:04.893Z,100939.38
2022-08-12T17:57:16.000Z,100933.84
2022-08-12T18:02:25.453Z,100931.80
2022-08-12T18:07:36.013Z,100928.40
2022-08-12T18:12:49.803Z,100929.01
2022-08-12T18:18:00.125Z,100924.90
2022-08-12T18:23:03.425Z,100928.70
2022-08-12T18:28:16.510Z,100933.48
2022-08-12T18:33:26.789Z,100940.80
2022-08-12T18:38:30.553Z,100941.91
2022-08-12T18:43:38.814Z,100938.13
2022-08-12T18:49:02.462Z,100937.80
2022-08-12T18:54:22.404Z,100935.46
2022-08-12T18:59:59.842Z,100934.11
2022-08-12T19:04:54.072Z,100938.30
2022-08-12T19:10:03.807Z,100943.64
2022-08-12T19:15:08.350Z,100946.30
2022-08-12T19:20:13.764Z,100943.82
2022-08-12T19:26:01.434Z,100940.40
2022-08-12T19:31:07.023Z,100938.92
2022-08-12T19:36:25.333Z,100944.44
2022-08-12T19:41:34.656Z,100945.73
2022-08-12T19:46:53.294Z,100948.33
2022-08-12T19:51:56.083Z,100949.34
2022-08-12T19:56:59.817Z,100957.23
2022-08-12T20:02:13.218Z,100964.95
2022-08-12T20:07:23.153Z,100965.91
2022-08-12T20:12:32.912Z,100962.69
2022-08-12T20:17:50.417Z,100965.33
2022-08-12T20:22:54.309Z,100971.93
2022-08-12T20:28:04.884Z,100975.33
2022-08-12T20:33:18.307Z,100975.73
2022-08-12T20:38:27.287Z,100976.83
2022-08-12T20:43:36.073Z,100979.45
2022-08-12T20:48:44.314Z,100979.55
2022-08-12T20:53:58.307Z,100978.46
2022-08-12T20:59:11.028Z,100973.89
2022-08-12T21:04:37.015Z,100980.23
2022-08-12T21:09:51.392Z,100981.43
2022-08-12T21:15:00.752Z,100984.66
2022-08-12T21:20:22.760Z,100985.73
2022-08-12T21:25:44.660Z,100983.31
2022-08-12T21:31:11.137Z,100987.73
2022-08-12T21:36:14.531Z,100975.49
2022-08-12T21:41:25.741Z,100979.88
2022-08-12T21:46:35.654Z,100981.20
2022-08-12T21:51:49.917Z,100977.08
2022-08-12T21:56:53.631Z,100972.06
2022-08-12T22:01:56.579Z,100962.88
2022-08-12T22:06:59.933Z,100952.60
2022-08-12T22:12:21.625Z,100957.21
2022-08-12T22:17:50.280Z,100956.56
2022-08-12T22:22:56.824Z,100953.94
2022-08-12T22:28:24.634Z,100953.85
2022-08-12T22:33:27.548Z,100959.44
2022-08-12T22:38:30.878Z,100959.72
2022-08-12T22:44:00.295Z,100956.42
2022-08-12T22:49:08.950Z,100957.15
2022-08-12T22:54:36.087Z,100951.70
2022-08-12T22:59:55.975Z,100948.94
2022-08-12T23:04:59.133Z,100949.17
2022-08-12T23:10:02.234Z,100947.48
2022-08-12T23:15:05.755Z,100934.60
2022-08-12T23:20:11.228Z,100934.00
2022-08-12T23:25:18.907Z,100932.59
2022-08-12T23:30:31.771Z,100933.61
2022-08-12T23:35:59.105Z,100940.06
2022-08-12T23:41:02.746Z,100934.02
2022-08-12T23:46:08.959Z,100931.27
2022-08-12T23:51:22.614Z,100932.16
2022-08-12T23:56:26.828Z,100931.82
